createdAt,value
2018-07-26T00:01:29.430Z,99.90
2018-07-26T00:03:58.443Z,99.90
2018-07-26T00:06:27.412Z,99.90
2018-07-26T00:08:56.354Z,99.90
2018-07-26T00:11:25.310Z,99.90
2018-07-26T00:13:54.308Z,99.90
2018-07-26T00:18:52.007Z,99.90
2018-07-26T00:21:21.023Z,99.90
2018-07-26T00:23:50.027Z,99.90
2018-07-26T00:26:18.950Z,99.90
2018-07-26T00:28:47.932Z,99.90
2018-07-26T00:31:16.936Z,99.90
2018-07-26T00:33:45.879Z,99.90
2018-07-26T00:36:14.856Z,99.90
2018-07-26T00:38:43.906Z,99.90
2018-07-26T00:41:12.933Z,99.90
2018-07-26T00:43:41.856Z,99.90
2018-07-26T00:46:11.100Z,99.90
2018-07-26T00:48:40.127Z,99.90
2018-07-26T00:51:09.101Z,99.90
2018-07-26T00:53:38.085Z,99.90
2018-07-26T00:56:07.167Z,99.90
2018-07-26T00:58:36.164Z,99.90
2018-07-26T01:01:05.143Z,99.90
2018-07-26T01:03:34.182Z,99.90
2018-07-26T01:06:03.183Z,99.90
2018-07-26T01:08:32.232Z,99.90
2018-07-26T01:11:01.208Z,99.90
2018-07-26T01:13:30.235Z,99.90
2018-07-26T01:15:59.215Z,99.90
2018-07-26T01:18:28.171Z,99.90
2018-07-26T01:20:57.183Z,99.90
2018-07-26T01:23:26.147Z,99.90
2018-07-26T01:25:55.101Z,99.90
2018-07-26T01:28:24.060Z,99.90
2018-07-26T01:30:53.016Z,99.90
2018-07-26T01:33:22.008Z,99.90
2018-07-26T01:35:51.019Z,99.90
2018-07-26T01:38:19.982Z,99.90
2018-07-26T01:40:48.923Z,99.90
2018-07-26T01:43:55.048Z,99.90
2018-07-26T01:46:25.182Z,99.90
2018-07-26T01:48:54.206Z,99.90
2018-07-26T01:51:23.190Z,99.90
2018-07-26T01:53:52.278Z,99.90
2018-07-26T01:56:21.290Z,99.90
2018-07-26T01:58:50.271Z,99.90
2018-07-26T02:01:19.283Z,99.90
2018-07-26T02:03:48.237Z,99.90
2018-07-26T02:06:17.183Z,99.90
2018-07-26T02:08:46.181Z,99.90
2018-07-26T02:11:15.227Z,99.90
2018-07-26T02:13:44.243Z,99.90
2018-07-26T02:16:13.182Z,99.90
2018-07-26T02:18:42.214Z,99.90
2018-07-26T02:21:11.142Z,99.90
2018-07-26T02:23:40.079Z,99.90
2018-07-26T02:26:09.074Z,99.90
2018-07-26T02:28:38.039Z,99.90
2018-07-26T02:31:07.109Z,99.90
2018-07-26T02:33:36.054Z,99.90
2018-07-26T02:36:05.044Z,99.90
2018-07-26T02:38:34.079Z,99.90
2018-07-26T02:41:03.056Z,99.90
2018-07-26T02:43:31.979Z,99.90
2018-07-26T02:46:00.975Z,99.90
2018-07-26T02:48:29.942Z,99.90
2018-07-26T02:50:58.904Z,99.90
2018-07-26T02:53:27.919Z,99.90
2018-07-26T02:55:56.960Z,99.90
2018-07-26T02:58:25.947Z,99.90
2018-07-26T03:00:54.918Z,99.90
2018-07-26T03:03:23.866Z,99.90
2018-07-26T03:05:52.854Z,99.90
2018-07-26T03:08:21.855Z,99.90
2018-07-26T03:10:50.907Z,99.90
2018-07-26T03:13:19.864Z,99.90
2018-07-26T03:15:48.807Z,99.90
2018-07-26T03:20:46.731Z,99.90
2018-07-26T03:23:15.649Z,99.90
2018-07-26T03:25:44.893Z,99.90
2018-07-26T03:28:13.863Z,99.90
2018-07-26T03:30:42.952Z,99.90
2018-07-26T03:33:11.918Z,99.90
2018-07-26T03:35:40.888Z,99.90
2018-07-26T03:38:10.022Z,99.90
2018-07-26T03:40:39.029Z,99.90
2018-07-26T03:43:08.032Z,99.90
2018-07-26T03:45:37.003Z,99.90
2018-07-26T03:48:06.075Z,99.90
2018-07-26T03:50:35.071Z,99.90
2018-07-26T03:53:04.054Z,99.90
2018-07-26T03:55:33.061Z,99.90
2018-07-26T03:58:02.106Z,99.90
2018-07-26T04:00:31.101Z,99.90
2018-07-26T04:03:00.083Z,99.90
2018-07-26T04:05:29.068Z,99.90
2018-07-26T04:07:58.031Z,99.90
2018-07-26T04:10:27.017Z,99.90
2018-07-26T04:12:56.267Z,99.90
2018-07-26T04:15:25.310Z,99.90
2018-07-26T04:18:01.807Z,99.90
2018-07-26T04:20:30.830Z,99.90
2018-07-26T04:23:06.278Z,99.90
2018-07-26T04:25:35.302Z,99.90
2018-07-26T04:28:04.287Z,99.90
2018-07-26T04:30:33.244Z,99.90
2018-07-26T04:33:02.259Z,99.90
2018-07-26T04:35:31.262Z,99.90
2018-07-26T04:38:00.279Z,99.90
2018-07-26T04:40:29.255Z,99.90
2018-07-26T04:42:58.303Z,99.90
2018-07-26T04:45:27.256Z,99.90
2018-07-26T04:47:56.244Z,99.90
2018-07-26T04:50:25.209Z,99.90
2018-07-26T04:52:54.250Z,99.90
2018-07-26T04:55:23.217Z,99.90
2018-07-26T04:57:52.295Z,99.90
2018-07-26T05:00:21.297Z,99.90
2018-07-26T05:02:50.346Z,99.90
2018-07-26T05:05:19.347Z,99.90
2018-07-26T05:07:48.335Z,99.90
2018-07-26T05:10:17.413Z,99.90
2018-07-26T05:12:46.461Z,99.90
2018-07-26T05:15:15.470Z,99.90
2018-07-26T05:17:44.442Z,99.90
2018-07-26T05:20:13.407Z,99.90
2018-07-26T05:22:42.418Z,99.90
2018-07-26T05:25:11.382Z,99.90
2018-07-26T05:27:40.500Z,99.90
2018-07-26T05:30:09.670Z,99.90
2018-07-26T05:32:38.659Z,99.90
2018-07-26T05:35:07.746Z,99.90
2018-07-26T05:37:36.766Z,99.90
2018-07-26T05:40:05.918Z,99.90
2018-07-26T05:42:34.929Z,99.90
2018-07-26T05:45:04.140Z,99.90
2018-07-26T05:47:33.219Z,99.90
2018-07-26T05:50:02.356Z,99.90
2018-07-26T05:52:31.395Z,99.90
2018-07-26T05:55:00.460Z,99.90
2018-07-26T05:57:29.433Z,99.90
2018-07-26T05:59:58.478Z,99.90
2018-07-26T06:02:27.895Z,99.90
2018-07-26T06:04:57.013Z,99.90
2018-07-26T06:07:26.058Z,99.90
2018-07-26T06:09:55.060Z,99.90
2018-07-26T06:12:24.096Z,99.90
2018-07-26T06:14:53.093Z,99.90
2018-07-26T06:17:22.075Z,99.90
2018-07-26T06:19:51.089Z,99.90
2018-07-26T06:22:20.064Z,99.90
2018-07-26T06:24:49.103Z,99.90
2018-07-26T06:27:18.067Z,99.90
2018-07-26T06:29:47.110Z,99.90
2018-07-26T06:32:16.107Z,99.90
2018-07-26T06:34:45.090Z,99.90
2018-07-26T06:37:14.031Z,99.90
2018-07-26T06:39:43.274Z,99.90
2018-07-26T06:42:12.281Z,99.90
2018-07-26T06:44:41.307Z,99.90
2018-07-26T06:47:10.939Z,99.90
2018-07-26T06:49:39.967Z,99.90
2018-07-26T06:52:09.051Z,99.90
2018-07-26T06:54:38.075Z,99.90
2018-07-26T06:57:07.082Z,99.90
2018-07-26T06:59:36.098Z,99.90
2018-07-26T07:02:05.104Z,99.90
2018-07-26T07:04:34.163Z,99.90
2018-07-26T07:07:03.179Z,99.90
2018-07-26T07:09:32.160Z,99.90
2018-07-26T07:12:01.195Z,99.90
2018-07-26T07:14:30.336Z,99.90
2018-07-26T07:16:59.594Z,99.90
2018-07-26T07:19:28.606Z,99.90
2018-07-26T07:21:57.601Z,99.80
2018-07-26T07:24:26.547Z,99.70
2018-07-26T07:26:55.564Z,99.40
2018-07-26T07:29:24.648Z,99.30
2018-07-26T07:31:53.619Z,99.10
2018-07-26T07:34:22.589Z,99.30
2018-07-26T07:36:51.546Z,98.60
2018-07-26T07:39:20.573Z,98.50
2018-07-26T07:41:49.633Z,98.20
2018-07-26T07:44:18.619Z,98.30
2018-07-26T07:46:47.595Z,97.50
2018-07-26T07:49:16.639Z,97.10
2018-07-26T07:51:45.639Z,96.90
2018-07-26T07:54:14.707Z,96.50
2018-07-26T07:56:43.728Z,96.50
2018-07-26T07:59:12.857Z,96.10
2018-07-26T08:01:41.831Z,95.80
2018-07-26T08:04:10.795Z,95.90
2018-07-26T08:06:39.791Z,95.50
2018-07-26T08:09:11.099Z,95.80
2018-07-26T08:11:40.377Z,94.90
2018-07-26T08:14:09.903Z,94.30
2018-07-26T08:16:38.954Z,93.90
2018-07-26T08:19:07.928Z,94.10
2018-07-26T08:21:36.879Z,93.80
2018-07-26T08:24:05.954Z,93.50
2018-07-26T08:26:34.971Z,93.20
2018-07-26T08:29:04.300Z,93.20
2018-07-26T08:31:33.267Z,93.40
2018-07-26T08:34:02.247Z,93.40
2018-07-26T08:36:31.235Z,92.50
2018-07-26T08:39:00.171Z,91.90
2018-07-26T08:41:29.140Z,91.30
2018-07-26T08:43:58.119Z,90.70
2018-07-26T08:46:27.122Z,91.30
2018-07-26T08:48:56.121Z,90.20
2018-07-26T08:51:25.383Z,88.00
2018-07-26T08:53:54.469Z,87.60
2018-07-26T08:56:23.451Z,87.10
2018-07-26T08:58:52.492Z,86.20
2018-07-26T09:01:21.444Z,86.40
2018-07-26T09:03:50.399Z,84.60
2018-07-26T09:06:19.327Z,83.90
2018-07-26T09:08:48.315Z,82.90
2018-07-26T09:11:17.313Z,82.60
2018-07-26T09:13:46.289Z,83.30
2018-07-26T09:16:15.238Z,81.70
2018-07-26T09:18:44.197Z,81.30
2018-07-26T09:23:41.788Z,79.10
2018-07-26T09:26:10.745Z,79.50
2018-07-26T09:28:39.802Z,78.20
2018-07-26T09:31:08.815Z,77.50
2018-07-26T09:33:37.810Z,77.90
2018-07-26T09:36:06.825Z,77.50
2018-07-26T09:38:35.827Z,76.90
2018-07-26T09:41:04.832Z,77.30
2018-07-26T09:43:33.857Z,77.30
2018-07-26T09:46:02.847Z,76.80
2018-07-26T09:48:31.951Z,77.30
2018-07-26T09:51:00.964Z,77.00
2018-07-26T09:53:29.950Z,77.20
2018-07-26T09:55:58.928Z,77.50
2018-07-26T09:58:27.920Z,77.20
2018-07-26T10:01:02.302Z,77.40
2018-07-26T10:03:31.266Z,76.80
2018-07-26T10:06:00.247Z,77.40
2018-07-26T10:08:29.227Z,77.20
2018-07-26T10:10:58.196Z,76.50
2018-07-26T10:13:27.160Z,77.00
2018-07-26T10:15:56.185Z,76.80
2018-07-26T10:18:25.167Z,77.80
2018-07-26T10:20:54.227Z,76.60
2018-07-26T10:23:23.243Z,76.40
2018-07-26T10:25:52.223Z,78.40
2018-07-26T10:28:21.203Z,77.50
2018-07-26T10:30:50.170Z,78.40
2018-07-26T10:33:19.168Z,77.30
2018-07-26T10:35:48.183Z,77.50
2018-07-26T10:38:17.162Z,76.80
2018-07-26T10:40:46.154Z,77.10
2018-07-26T10:43:15.151Z,77.10
2018-07-26T10:45:44.211Z,77.90
2018-07-26T10:48:13.174Z,76.80
2018-07-26T10:50:42.206Z,76.00
2018-07-26T10:53:11.234Z,75.80
2018-07-26T10:55:40.374Z,75.40
2018-07-26T10:58:09.363Z,74.70
2018-07-26T11:00:38.359Z,74.70
2018-07-26T11:03:07.432Z,75.60
2018-07-26T11:05:36.499Z,75.20
2018-07-26T11:10:34.050Z,71.90
2018-07-26T11:13:03.031Z,73.10
2018-07-26T11:15:35.280Z,72.50
2018-07-26T11:18:04.595Z,71.40
2018-07-26T11:20:33.562Z,70.70
2018-07-26T11:23:02.542Z,69.90
2018-07-26T11:25:31.542Z,69.40
2018-07-26T11:28:00.487Z,68.00
2018-07-26T11:30:29.475Z,67.90
2018-07-26T11:32:58.441Z,67.60
2018-07-26T11:35:27.388Z,67.00
2018-07-26T11:37:56.444Z,66.70
2018-07-26T11:40:25.319Z,65.90
2018-07-26T11:45:22.921Z,64.00
2018-07-26T11:47:51.877Z,63.80
2018-07-26T11:50:20.920Z,64.10
2018-07-26T11:52:50.063Z,64.20
2018-07-26T11:55:18.983Z,63.40
2018-07-26T11:57:48.044Z,63.00
2018-07-26T12:00:17.023Z,62.10
2018-07-26T12:02:46.023Z,61.40
2018-07-26T12:05:14.960Z,61.80
2018-07-26T12:07:43.972Z,60.40
2018-07-26T12:10:12.960Z,60.20
2018-07-26T12:12:42.004Z,59.90
2018-07-26T12:15:10.992Z,59.30
2018-07-26T12:20:08.747Z,58.70
2018-07-26T12:22:37.716Z,58.70
2018-07-26T12:25:06.682Z,58.40
2018-07-26T12:27:35.654Z,58.00
2018-07-26T12:30:06.352Z,58.10
2018-07-26T12:32:35.374Z,57.10
2018-07-26T12:35:04.518Z,57.40
2018-07-26T12:37:33.470Z,57.60
2018-07-26T12:40:02.443Z,58.50
2018-07-26T12:42:31.563Z,56.40
2018-07-26T12:45:00.559Z,56.60
2018-07-26T12:47:29.599Z,56.10
2018-07-26T12:49:58.863Z,56.40
2018-07-26T12:52:27.875Z,56.10
2018-07-26T12:54:56.856Z,56.40
2018-07-26T12:57:25.860Z,55.90
2018-07-26T12:59:54.895Z,56.20
2018-07-26T13:02:23.865Z,56.50
2018-07-26T13:04:52.815Z,56.70
2018-07-26T13:07:21.772Z,56.40
2018-07-26T13:09:50.750Z,56.10
2018-07-26T13:12:19.757Z,55.70
2018-07-26T13:14:48.730Z,55.40
2018-07-26T13:17:17.809Z,55.20
2018-07-26T13:19:46.774Z,54.80
2018-07-26T13:22:15.802Z,55.20
2018-07-26T13:24:44.823Z,54.40
2018-07-26T13:27:13.749Z,53.60
2018-07-26T13:29:42.742Z,53.40
2018-07-26T13:32:11.739Z,53.70
2018-07-26T13:34:40.739Z,53.50
2018-07-26T13:39:38.360Z,53.20
2018-07-26T13:42:07.338Z,53.00
2018-07-26T13:44:36.289Z,52.50
2018-07-26T13:47:05.531Z,52.00
2018-07-26T13:49:34.531Z,52.10
2018-07-26T13:52:04.190Z,52.40
2018-07-26T13:54:33.241Z,53.00
2018-07-26T13:57:02.204Z,53.00
2018-07-26T13:59:31.192Z,53.00
2018-07-26T14:02:00.191Z,52.40
2018-07-26T14:04:29.149Z,52.60
2018-07-26T14:06:58.143Z,52.80
2018-07-26T14:09:27.128Z,52.90
2018-07-26T14:11:56.100Z,52.90
2018-07-26T14:14:25.184Z,53.10
2018-07-26T14:16:54.206Z,52.50
2018-07-26T14:19:23.226Z,52.70
2018-07-26T14:21:52.429Z,52.60
2018-07-26T14:24:21.497Z,52.50
2018-07-26T14:29:19.905Z,52.00
2018-07-26T14:31:48.799Z,51.50
2018-07-26T14:34:17.919Z,51.50
2018-07-26T14:36:47.432Z,51.00
2018-07-26T14:39:16.410Z,50.90
2018-07-26T14:41:45.381Z,50.70
2018-07-26T14:44:14.348Z,50.60
2018-07-26T14:46:43.324Z,50.60
2018-07-26T14:49:12.273Z,50.80
2018-07-26T14:51:41.272Z,51.10
2018-07-26T14:54:10.508Z,51.20
2018-07-26T14:56:39.472Z,50.30
2018-07-26T14:59:08.452Z,50.40
2018-07-26T15:01:37.478Z,50.60
2018-07-26T15:04:06.719Z,50.80
2018-07-26T15:06:35.634Z,50.70
2018-07-26T15:11:35.412Z,50.50
2018-07-26T15:14:04.423Z,50.20
2018-07-26T15:16:33.400Z,50.40
2018-07-26T15:19:02.366Z,49.60
2018-07-26T15:21:31.385Z,49.70
2018-07-26T15:24:00.361Z,49.50
2018-07-26T15:26:29.443Z,49.50
2018-07-26T15:28:58.640Z,48.70
2018-07-26T15:31:27.803Z,48.20
2018-07-26T15:36:25.899Z,46.00
2018-07-26T15:41:23.940Z,44.60
2018-07-26T15:43:52.886Z,43.70
2018-07-26T15:46:21.838Z,43.00
2018-07-26T15:48:50.799Z,42.50
2018-07-26T15:51:19.763Z,41.70
2018-07-26T15:53:48.699Z,39.20
2018-07-26T15:56:17.767Z,39.60
2018-07-26T15:58:46.760Z,38.80
2018-07-26T16:01:15.783Z,38.20
2018-07-26T16:03:44.769Z,37.10
2018-07-26T16:06:13.753Z,36.40
2018-07-26T16:08:43.264Z,36.20
2018-07-26T16:11:12.299Z,35.00
2018-07-26T16:13:41.278Z,34.20
2018-07-26T16:16:10.277Z,32.50
2018-07-26T16:18:39.237Z,32.10
2018-07-26T16:21:08.731Z,32.20
2018-07-26T16:23:37.719Z,32.40
2018-07-26T16:26:06.707Z,32.10
2018-07-26T16:28:35.719Z,31.90
2018-07-26T16:31:04.719Z,31.40
2018-07-26T16:33:33.946Z,31.30
2018-07-26T16:36:02.937Z,31.60
2018-07-26T16:41:00.583Z,31.60
2018-07-26T16:43:29.507Z,31.70
2018-07-26T16:45:58.543Z,31.90
2018-07-26T16:48:27.558Z,31.50
2018-07-26T16:50:56.557Z,31.20
2018-07-26T16:53:25.534Z,30.80
2018-07-26T16:55:54.513Z,30.70
2018-07-26T16:58:23.547Z,30.30
2018-07-26T17:00:52.511Z,30.00
2018-07-26T17:03:21.525Z,29.40
2018-07-26T17:05:50.479Z,29.10
2018-07-26T17:08:19.554Z,28.80
2018-07-26T17:10:48.643Z,28.80
2018-07-26T17:15:46.441Z,29.10
2018-07-26T17:18:15.443Z,29.20
2018-07-26T17:20:44.481Z,29.60
2018-07-26T17:23:13.452Z,29.50
2018-07-26T17:25:42.438Z,29.70
2018-07-26T17:28:11.419Z,30.00
2018-07-26T17:30:40.394Z,30.00
2018-07-26T17:33:09.378Z,30.10
2018-07-26T17:35:38.331Z,30.20
2018-07-26T17:38:07.424Z,30.00
2018-07-26T17:40:36.527Z,30.10
2018-07-26T17:43:05.522Z,30.20
2018-07-26T17:45:34.618Z,30.10
2018-07-26T17:48:03.846Z,30.30
2018-07-26T17:50:32.847Z,31.30
2018-07-26T17:55:31.335Z,33.40
2018-07-26T17:58:00.328Z,34.20
2018-07-26T18:00:30.224Z,35.30
2018-07-26T18:02:59.231Z,36.20
2018-07-26T18:05:28.403Z,37.30
2018-07-26T18:07:57.402Z,38.00
2018-07-26T18:10:26.376Z,38.40
2018-07-26T18:12:55.400Z,39.00
2018-07-26T18:15:24.407Z,39.40
2018-07-26T18:17:53.441Z,39.90
2018-07-26T18:20:22.409Z,40.20
2018-07-26T18:22:51.384Z,40.70
2018-07-26T18:25:20.417Z,41.10
2018-07-26T18:27:49.468Z,41.60
2018-07-26T18:30:18.474Z,41.90
2018-07-26T18:32:47.451Z,42.30
2018-07-26T18:35:16.438Z,42.60
2018-07-26T18:37:45.452Z,43.10
2018-07-26T18:42:43.139Z,43.80
2018-07-26T18:45:12.471Z,44.10
2018-07-26T18:47:42.422Z,44.60
2018-07-26T18:50:11.755Z,45.00
2018-07-26T18:52:41.406Z,46.10
2018-07-26T18:55:10.820Z,45.90
2018-07-26T18:57:40.297Z,46.30
2018-07-26T19:00:11.324Z,46.70
2018-07-26T19:02:40.540Z,47.00
2018-07-26T19:05:09.768Z,47.50
2018-07-26T19:07:38.721Z,47.90
2018-07-26T19:10:09.326Z,48.30
2018-07-26T19:12:39.308Z,48.50
2018-07-26T19:15:10.653Z,49.00
2018-07-26T19:17:40.436Z,49.40
2018-07-26T19:20:11.133Z,49.70
2018-07-26T19:22:40.366Z,50.00
2018-07-26T19:25:10.383Z,50.30
2018-07-26T19:27:39.380Z,50.50
2018-07-26T19:30:10.915Z,50.90
2018-07-26T19:32:39.896Z,51.40
2018-07-26T19:37:37.636Z,52.20
2018-07-26T19:40:08.027Z,52.40
2018-07-26T19:42:37.408Z,53.00
2018-07-26T19:47:35.321Z,54.00
2018-07-26T19:50:04.930Z,54.60
2018-07-26T19:52:34.014Z,54.80
2018-07-26T19:55:03.187Z,55.10
2018-07-26T19:57:32.220Z,55.50
2018-07-26T20:00:02.231Z,55.90
2018-07-26T20:05:00.515Z,56.30
2018-07-26T20:07:29.511Z,57.00
2018-07-26T20:09:59.465Z,57.50
2018-07-26T20:12:29.377Z,57.80
2018-07-26T20:17:27.147Z,58.50
2018-07-26T20:19:56.273Z,58.90
2018-07-26T20:22:25.351Z,59.30
2018-07-26T20:24:54.334Z,59.70
2018-07-26T20:27:23.667Z,60.00
2018-07-26T20:29:52.704Z,60.80
2018-07-26T20:32:21.728Z,61.30
2018-07-26T20:34:50.764Z,61.90
2018-07-26T20:37:19.715Z,62.50
2018-07-26T20:39:50.642Z,63.30
2018-07-26T20:42:19.747Z,63.90
2018-07-26T20:44:48.727Z,64.70
2018-07-26T20:47:17.719Z,65.30
2018-07-26T20:49:46.708Z,66.10
2018-07-26T20:52:15.703Z,66.90
2018-07-26T20:54:44.706Z,67.60
2018-07-26T20:57:13.720Z,68.30
2018-07-26T20:59:42.687Z,69.30
2018-07-26T21:02:11.868Z,69.90
2018-07-26T21:04:40.858Z,71.00
2018-07-26T21:07:09.854Z,71.90
2018-07-26T21:09:38.867Z,72.80
2018-07-26T21:12:07.941Z,73.70
2018-07-26T21:14:36.923Z,74.60
2018-07-26T21:17:05.955Z,75.70
2018-07-26T21:19:35.606Z,76.70
2018-07-26T21:22:04.633Z,77.60
2018-07-26T21:24:33.611Z,78.70
2018-07-26T21:27:02.608Z,79.90
2018-07-26T21:29:31.695Z,80.80
2018-07-26T21:32:00.670Z,81.70
2018-07-26T21:34:29.692Z,82.50
2018-07-26T21:36:58.785Z,83.60
2018-07-26T21:39:27.785Z,84.60
2018-07-26T21:41:56.735Z,85.60
2018-07-26T21:44:25.667Z,86.70
2018-07-26T21:46:55.066Z,87.90
2018-07-26T21:49:25.025Z,88.90
2018-07-26T21:51:54.246Z,90.00
2018-07-26T21:54:23.256Z,90.50
2018-07-26T21:56:52.236Z,91.10
2018-07-26T21:59:21.295Z,91.60
2018-07-26T22:01:50.231Z,92.00
2018-07-26T22:04:19.269Z,92.50
2018-07-26T22:06:48.300Z,92.90
2018-07-26T22:09:17.297Z,93.10
2018-07-26T22:11:46.289Z,93.50
2018-07-26T22:14:15.237Z,93.90
2018-07-26T22:16:45.019Z,94.20
2018-07-26T22:19:14.139Z,94.50
2018-07-26T22:21:43.106Z,95.00
2018-07-26T22:24:12.072Z,95.30
2018-07-26T22:26:41.102Z,95.70
2018-07-26T22:29:10.121Z,96.00
2018-07-26T22:31:39.122Z,96.40
2018-07-26T22:34:08.355Z,96.70
2018-07-26T22:36:38.301Z,97.10
2018-07-26T22:39:08.916Z,97.40
2018-07-26T22:41:38.415Z,97.90
2018-07-26T22:44:07.558Z,98.10
2018-07-26T22:46:36.538Z,98.40
2018-07-26T22:49:06.683Z,98.70
2018-07-26T22:51:35.646Z,99.00
2018-07-26T22:54:04.647Z,99.30
2018-07-26T22:56:33.824Z,99.60
2018-07-26T22:59:03.011Z,99.80
2018-07-26T23:01:32.039Z,99.90
2018-07-26T23:04:01.361Z,99.90
2018-07-26T23:06:30.345Z,99.90
2018-07-26T23:08:59.354Z,99.90
2018-07-26T23:11:28.322Z,99.90
2018-07-26T23:13:57.298Z,99.90
2018-07-26T23:16:26.283Z,99.90
2018-07-26T23:18:55.330Z,99.90
2018-07-26T23:21:24.302Z,99.90
2018-07-26T23:23:53.271Z,99.90
2018-07-26T23:26:22.405Z,99.90
2018-07-26T23:28:51.336Z,99.90
2018-07-26T23:33:48.905Z,99.90
2018-07-26T23:36:17.869Z,99.90
2018-07-26T23:38:46.850Z,99.90
2018-07-26T23:41:15.845Z,99.90
2018-07-26T23:43:44.836Z,99.90
2018-07-26T23:46:13.775Z,99.90
2018-07-26T23:48:42.771Z,99.90
2018-07-26T23:51:11.733Z,99.90
2018-07-26T23:53:40.723Z,99.90
2018-07-26T23:56:09.658Z,99.90
2018-07-26T23:58:38.670Z,99.90
